This is the latest recevied weather packets stored in our database for station/object K6TTR. If no packets are shown the sender has not sent any weather packets the latest 10 day(s).
| Time | Temp. | Humidity | Pressure | Rain* | Wind** | Luminosity | Snow |
|---|---|---|---|---|---|---|---|
| 1777601014 | 16.11° C | 48% | 1016.5 hPa | 0 mm | - | 42 W/m² | - |
| 1777600425 | 16.67° C | 48% | 1016.6 hPa | 0 mm | - | 60 W/m² | - |
| 1777585123 | 21.11° C | 28% | 1017.5 hPa | 0 mm | - | 1069 W/m² | - |
| 1777584228 | 20° C | 29% | 1017.7 hPa | 0 mm | - | 1021 W/m² | - |
| 1777583913 | 20° C | 29% | 1017.7 hPa | 0 mm | - | 1028 W/m² | - |
| 1777581223 | 20° C | 29% | 1017.9 hPa | 0 mm | - | 220 W/m² | - |
| 1777580929 | 20° C | 30% | 1017.9 hPa | 0 mm | - | 1144 W/m² | - |
| 1777580612 | 19.44° C | 30% | 1017.9 hPa | 0 mm | - | 1095 W/m² | - |
| 1777580317 | 19.44° C | 31% | 1018 hPa | 0 mm | - | 1127 W/m² | - |
| 1777580023 | 19.44° C | 31% | 1018 hPa | 0 mm | - | 1201 W/m² | - |
| 1777579430 | 18.89° C | 32% | 1018.1 hPa | 0 mm | - | 1120 W/m² | - |
| 1777579113 | 18.89° C | 33% | 1018.1 hPa | 0 mm | - | 1055 W/m² | - |
| 1777577323 | 18.33° C | 35% | 1018.5 hPa | 0 mm | - | 1004 W/m² | - |
| 1777577029 | 18.33° C | 36% | 1018.5 hPa | 0 mm | - | 986 W/m² | - |
| 1777576420 | 18.33° C | 39% | 1018.6 hPa | 0 mm | - | 995 W/m² | - |
| 1777575830 | 18.33° C | 30% | 1018.8 hPa | 0 mm | - | 671 W/m² | - |
| 1777574927 | 17.78° C | 33% | 1019 hPa | 0 mm | - | 817 W/m² | - |
| 1777573728 | 17.22° C | 34% | 1019.2 hPa | 0 mm | - | 916 W/m² | - |
| 1777572528 | 16.67° C | 35% | 1019.3 hPa | 0 mm | - | 853 W/m² | - |
| 1777571920 | 16.67° C | 35% | 1019.3 hPa | 0 mm | - | 696 W/m² | - |
| 1777571623 | 16.67° C | 37% | 1019.3 hPa | 0 mm | - | 290 W/m² | - |
| 1777570724 | 16.11° C | 38% | 1019.3 hPa | 0 mm | - | 91 W/m² | - |
| 1777570112 | 15.56° C | 42% | 1019.4 hPa | 0 mm | - | 67 W/m² | - |
| 1777569520 | 15° C | 42% | 1019.3 hPa | 0 mm | - | 69 W/m² | - |
| 1777566821 | 13.33° C | 50% | 1019.6 hPa | 0 mm | - | 589 W/m² | - |
* Rain latest hour (hover to see other rain measurements)
** Current wind speed in m/s (hover to see current wind gust speed)